<?xml version="1.0" encoding="UTF-8" standalone="no" ?>
<gpx xmlns="http://www.topografix.com/GPX/1/1" xmlns:xsi="http://www.w3.org/2001/XMLSchema-instance" xsi:schemaLocation="http://www.topografix.com/GPX/1/1 http://www.topografix.com/GPX/1/1/gpx.xsd" version="1.1" creator="VisuGPX - https://www.visugpx.com">
  <metadata>
    <name>Etape 2 Férel - Les Moûtiers</name>
    <desc><![CDATA[Randonnée vélo Rennes - Hendaye, empruntant la Vélodyssée à partir de Saint-Brevin-Les-Pins. ]]></desc>
  </metadata>
  <trk>
    <name><![CDATA[Sequence 12]]></name>
    <trkseg>
      <trkpt lat="47.30745" lon="-2.18085">
        <ele>-2</ele>
        <time>2016-07-22T06:29:53Z</time>
      </trkpt>
      <trkpt lat="47.30744" lon="-2.18084">
        <ele>-1</ele>
        <time>2016-07-22T06:29:58Z</time>
      </trkpt>
      <trkpt lat="47.30738" lon="-2.18072">
        <ele>-2</ele>
        <time>2016-07-22T06:30:05Z</time>
      </trkpt>
      <trkpt lat="47.30734" lon="-2.1806">
        <ele>-1</ele>
        <time>2016-07-22T06:30:08Z</time>
      </trkpt>
      <trkpt lat="47.30721" lon="-2.18057">
        <ele>4</ele>
        <time>2016-07-22T06:30:13Z</time>
      </trkpt>
      <trkpt lat="47.30706" lon="-2.18056">
        <ele>3</ele>
        <time>2016-07-22T06:30:18Z</time>
      </trkpt>
      <trkpt lat="47.30686" lon="-2.18062">
        <ele>1</ele>
        <time>2016-07-22T06:30:24Z</time>
      </trkpt>
      <trkpt lat="47.30663" lon="-2.18095">
        <ele>-1</ele>
        <time>2016-07-22T06:30:31Z</time>
      </trkpt>
      <trkpt lat="47.30657" lon="-2.18105">
        <ele>4</ele>
        <time>2016-07-22T06:30:33Z</time>
      </trkpt>
      <trkpt lat="47.30648" lon="-2.18128">
        <ele>4</ele>
        <time>2016-07-22T06:30:38Z</time>
      </trkpt>
      <trkpt lat="47.30637" lon="-2.18137">
        <ele>5</ele>
        <time>2016-07-22T06:30:43Z</time>
      </trkpt>
      <trkpt lat="47.30625" lon="-2.18124">
        <ele>9</ele>
        <time>2016-07-22T06:30:48Z</time>
      </trkpt>
      <trkpt lat="47.30614" lon="-2.18107">
        <ele>10</ele>
        <time>2016-07-22T06:30:53Z</time>
      </trkpt>
      <trkpt lat="47.30611" lon="-2.18101">
        <ele>9</ele>
        <time>2016-07-22T06:30:58Z</time>
      </trkpt>
      <trkpt lat="47.30609" lon="-2.18101">
        <ele>7</ele>
        <time>2016-07-22T06:31:03Z</time>
      </trkpt>
      <trkpt lat="47.30608" lon="-2.18097">
        <ele>10</ele>
        <time>2016-07-22T06:31:08Z</time>
      </trkpt>
      <trkpt lat="47.30598" lon="-2.1808">
        <ele>10</ele>
        <time>2016-07-22T06:31:13Z</time>
      </trkpt>
      <trkpt lat="47.30586" lon="-2.18069">
        <ele>9</ele>
        <time>2016-07-22T06:31:18Z</time>
      </trkpt>
      <trkpt lat="47.3058" lon="-2.18074">
        <ele>9</ele>
        <time>2016-07-22T06:31:24Z</time>
      </trkpt>
      <trkpt lat="47.30573" lon="-2.18084">
        <ele>9</ele>
        <time>2016-07-22T06:31:28Z</time>
      </trkpt>
      <trkpt lat="47.30556" lon="-2.18104">
        <ele>9</ele>
        <time>2016-07-22T06:31:33Z</time>
      </trkpt>
      <trkpt lat="47.3053" lon="-2.1813">
        <ele>6</ele>
        <time>2016-07-22T06:31:39Z</time>
      </trkpt>
      <trkpt lat="47.30521" lon="-2.1814">
        <ele>16</ele>
        <time>2016-07-22T06:31:43Z</time>
      </trkpt>
      <trkpt lat="47.30488" lon="-2.18181">
        <ele>13</ele>
        <time>2016-07-22T06:31:52Z</time>
      </trkpt>
      <trkpt lat="47.30482" lon="-2.18195">
        <ele>11</ele>
        <time>2016-07-22T06:31:54Z</time>
      </trkpt>
      <trkpt lat="47.30467" lon="-2.1822">
        <ele>13</ele>
        <time>2016-07-22T06:31:58Z</time>
      </trkpt>
      <trkpt lat="47.30436" lon="-2.18272">
        <ele>9</ele>
        <time>2016-07-22T06:32:07Z</time>
      </trkpt>
      <trkpt lat="47.30426" lon="-2.18287">
        <ele>8</ele>
        <time>2016-07-22T06:32:10Z</time>
      </trkpt>
      <trkpt lat="47.30414" lon="-2.18308">
        <ele>7</ele>
        <time>2016-07-22T06:32:14Z</time>
      </trkpt>
      <trkpt lat="47.30404" lon="-2.18328">
        <ele>5</ele>
        <time>2016-07-22T06:32:18Z</time>
      </trkpt>
      <trkpt lat="47.30389" lon="-2.1835">
        <ele>2</ele>
        <time>2016-07-22T06:32:23Z</time>
      </trkpt>
      <trkpt lat="47.30386" lon="-2.18363">
        <ele>2</ele>
        <time>2016-07-22T06:32:30Z</time>
      </trkpt>
      <trkpt lat="47.30386" lon="-2.18364">
        <ele>4.3</ele>
        <time>2016-07-22T06:32:33Z</time>
      </trkpt>
    </trkseg>
  </trk>
</gpx>